sensor_id;sensor_type;location;lat;lon;timestamp;pressure;altitude;pressure_sealevel;temperature;humidity
11339;BME280;5724;42.684;23.252;2023-01-05T00:00:11;95174.50;;;4.10;100.00
11339;BME280;5724;42.684;23.252;2023-01-05T00:02:37;95166.88;;;4.12;100.00
11339;BME280;5724;42.684;23.252;2023-01-05T00:05:03;95159.56;;;3.98;100.00
11339;BME280;5724;42.684;23.252;2023-01-05T00:07:29;95169.69;;;4.07;100.00
11339;BME280;5724;42.684;23.252;2023-01-05T00:09:54;95167.56;;;4.03;100.00
11339;BME280;5724;42.684;23.252;2023-01-05T00:12:20;95166.28;;;4.15;100.00
11339;BME280;5724;42.684;23.252;2023-01-05T00:15:04;95165.69;;;4.18;100.00
11339;BME280;5724;42.684;23.252;2023-01-05T00:17:48;95154.97;;;4.13;100.00
11339;BME280;5724;42.684;23.252;2023-01-05T00:20:32;95152.25;;;4.13;100.00
11339;BME280;5724;42.684;23.252;2023-01-05T00:23:16;95148.19;;;4.15;100.00
11339;BME280;5724;42.684;23.252;2023-01-05T00:25:43;95141.25;;;4.09;100.00
11339;BME280;5724;42.684;23.252;2023-01-05T00:28:08;95145.47;;;4.15;100.00
11339;BME280;5724;42.684;23.252;2023-01-05T00:30:43;95139.34;;;4.23;100.00
11339;BME280;5724;42.684;23.252;2023-01-05T00:33:10;95141.47;;;4.26;100.00
11339;BME280;5724;42.684;23.252;2023-01-05T00:35:36;95135.66;;;4.33;100.00
11339;BME280;5724;42.684;23.252;2023-01-05T00:38:03;95133.47;;;4.35;100.00
11339;BME280;5724;42.684;23.252;2023-01-05T00:40:29;95130.53;;;4.31;100.00
11339;BME280;5724;42.684;23.252;2023-01-05T00:42:55;95135.66;;;4.33;100.00
11339;BME280;5724;42.684;23.252;2023-01-05T00:45:20;95135.25;;;4.40;100.00
11339;BME280;5724;42.684;23.252;2023-01-05T00:47:46;95128.25;;;4.39;100.00
11339;BME280;5724;42.684;23.252;2023-01-05T00:50:14;95129.53;;;4.41;100.00
11339;BME280;5724;42.684;23.252;2023-01-05T00:52:40;95140.59;;;4.45;100.00
11339;BME280;5724;42.684;23.252;2023-01-05T00:55:06;95135.84;;;4.50;100.00
11339;BME280;5724;42.684;23.252;2023-01-05T00:57:32;95130.44;;;4.50;100.00
11339;BME280;5724;42.684;23.252;2023-01-05T00:59:57;95132.84;;;4.52;100.00
11339;BME280;5724;42.684;23.252;2023-01-05T01:02:22;95133.66;;;4.52;100.00
11339;BME280;5724;42.684;23.252;2023-01-05T01:04:48;95129.94;;;4.48;100.00
11339;BME280;5724;42.684;23.252;2023-01-05T01:07:14;95135.25;;;4.53;100.00
11339;BME280;5724;42.684;23.252;2023-01-05T01:09:39;95131.66;;;4.58;100.00
11339;BME280;5724;42.684;23.252;2023-01-05T01:12:05;95127.03;;;4.58;100.00
11339;BME280;5724;42.684;23.252;2023-01-05T01:14:31;95136.16;;;4.63;100.00
11339;BME280;5724;42.684;23.252;2023-01-05T01:16:56;95134.47;;;4.67;100.00
11339;BME280;5724;42.684;23.252;2023-01-05T01:19:24;95131.94;;;4.70;100.00
11339;BME280;5724;42.684;23.252;2023-01-05T01:21:50;95131.94;;;4.70;100.00
11339;BME280;5724;42.684;23.252;2023-01-05T01:24:18;95125.13;;;4.73;100.00
11339;BME280;5724;42.684;23.252;2023-01-05T01:26:44;95127.81;;;4.73;100.00
11339;BME280;5724;42.684;23.252;2023-01-05T01:29:10;95110.41;;;4.65;100.00
11339;BME280;5724;42.684;23.252;2023-01-05T01:31:36;95103.09;;;4.52;100.00
11339;BME280;5724;42.684;23.252;2023-01-05T01:34:02;95106.22;;;4.45;100.00
11339;BME280;5724;42.684;23.252;2023-01-05T01:36:28;95105.91;;;4.33;100.00
11339;BME280;5724;42.684;23.252;2023-01-05T01:38:54;95099.19;;;4.30;100.00
11339;BME280;5724;42.684;23.252;2023-01-05T01:41:19;95089.78;;;4.28;100.00
11339;BME280;5724;42.684;23.252;2023-01-05T02:00:06;95054.72;;;4.37;100.00
11339;BME280;5724;42.684;23.252;2023-01-05T02:02:32;95057.88;;;4.52;100.00
11339;BME280;5724;42.684;23.252;2023-01-05T02:05:03;95060.09;;;4.64;100.00
11339;BME280;5724;42.684;23.252;2023-01-05T02:07:33;95052.03;;;4.73;100.00
11339;BME280;5724;42.684;23.252;2023-01-05T02:10:00;95048.03;;;4.84;100.00
11339;BME280;5724;42.684;23.252;2023-01-05T02:12:51;95043.16;;;4.95;100.00
11339;BME280;5724;42.684;23.252;2023-01-05T02:16:13;95041.03;;;5.05;100.00
11339;BME280;5724;42.684;23.252;2023-01-05T02:21:01;95036.59;;;5.09;100.00
11339;BME280;5724;42.684;23.252;2023-01-05T02:26:45;95043.25;;;5.26;100.00
11339;BME280;5724;42.684;23.252;2023-01-05T02:29:21;95041.50;;;5.30;100.00
11339;BME280;5724;42.684;23.252;2023-01-05T02:31:57;95043.31;;;5.34;100.00
11339;BME280;5724;42.684;23.252;2023-01-05T02:35:09;95041.56;;;5.38;100.00
11339;BME280;5724;42.684;23.252;2023-01-05T02:37:46;95049.59;;;5.43;100.00
11339;BME280;5724;42.684;23.252;2023-01-05T02:40:18;95039.72;;;5.47;100.00
11339;BME280;5724;42.684;23.252;2023-01-05T02:42:48;95048.34;;;5.50;100.00
11339;BME280;5724;42.684;23.252;2023-01-05T02:45:15;95037.63;;;5.44;100.00
11339;BME280;5724;42.684;23.252;2023-01-05T02:47:43;95041.25;;;5.40;100.00
11339;BME280;5724;42.684;23.252;2023-01-05T02:50:28;95038.44;;;5.45;100.00
11339;BME280;5724;42.684;23.252;2023-01-05T02:53:09;95025.84;;;5.40;100.00
11339;BME280;5724;42.684;23.252;2023-01-05T02:55:45;95023.91;;;5.41;100.00
11339;BME280;5724;42.684;23.252;2023-01-05T02:58:29;95023.91;;;5.41;100.00
11339;BME280;5724;42.684;23.252;2023-01-05T03:01:00;95017.00;;;5.35;100.00
11339;BME280;5724;42.684;23.252;2023-01-05T03:03:42;95010.31;;;5.32;100.00
11339;BME280;5724;42.684;23.252;2023-01-05T03:06:20;95019.31;;;5.41;100.00
11339;BME280;5724;42.684;23.252;2023-01-05T03:08:53;95011.44;;;5.40;100.00
11339;BME280;5724;42.684;23.252;2023-01-05T03:11:20;94985.97;;;5.41;100.00
11339;BME280;5724;42.684;23.252;2023-01-05T03:14:33;94992.41;;;5.23;100.00
11339;BME280;5724;42.684;23.252;2023-01-05T03:17:03;94992.25;;;5.28;100.00
11339;BME280;5724;42.684;23.252;2023-01-05T03:19:30;94973.19;;;5.33;100.00
11339;BME280;5724;42.684;23.252;2023-01-05T03:22:16;94968.09;;;5.40;100.00
11339;BME280;5724;42.684;23.252;2023-01-05T03:25:01;94970.31;;;5.38;100.00
11339;BME280;5724;42.684;23.252;2023-01-05T03:27:46;94962.34;;;5.33;100.00
11339;BME280;5724;42.684;23.252;2023-01-05T03:30:41;94967.56;;;5.29;100.00
11339;BME280;5724;42.684;23.252;2023-01-05T03:36:20;94957.78;;;5.20;100.00
11339;BME280;5724;42.684;23.252;2023-01-05T03:38:49;94950.66;;;5.24;100.00
11339;BME280;5724;42.684;23.252;2023-01-05T03:41:16;94955.69;;;5.16;100.00
11339;BME280;5724;42.684;23.252;2023-01-05T03:43:42;94958.03;;;5.09;100.00
11339;BME280;5724;42.684;23.252;2023-01-05T03:46:10;94965.56;;;5.12;100.00
11339;BME280;5724;42.684;23.252;2023-01-05T03:48:37;94965.50;;;5.04;100.00
11339;BME280;5724;42.684;23.252;2023-01-05T03:51:03;94966.31;;;5.04;100.00
11339;BME280;5724;42.684;23.252;2023-01-05T03:53:29;94967.84;;;4.97;100.00
11339;BME280;5724;42.684;23.252;2023-01-05T03:55:54;94968.00;;;4.78;100.00
11339;BME280;5724;42.684;23.252;2023-01-05T03:58:20;94967.22;;;4.77;100.00
11339;BME280;5724;42.684;23.252;2023-01-05T04:00:45;94972.94;;;4.76;100.00
11339;BME280;5724;42.684;23.252;2023-01-05T04:03:11;94956.22;;;4.74;100.00
11339;BME280;5724;42.684;23.252;2023-01-05T04:05:36;94957.19;;;4.78;100.00
11339;BME280;5724;42.684;23.252;2023-01-05T04:08:02;94951.78;;;4.78;100.00
11339;BME280;5724;42.684;23.252;2023-01-05T04:10:27;94945.56;;;4.77;100.00
11339;BME280;5724;42.684;23.252;2023-01-05T04:12:52;94946.84;;;4.80;100.00
11339;BME280;5724;42.684;23.252;2023-01-05T04:15:18;94941.66;;;4.70;100.00
11339;BME280;5724;42.684;23.252;2023-01-05T04:17:43;94946.69;;;4.63;100.00
11339;BME280;5724;42.684;23.252;2023-01-05T04:20:09;94941.00;;;4.64;100.00
11339;BME280;5724;42.684;23.252;2023-01-05T04:22:35;94931.47;;;4.67;100.00
11339;BME280;5724;42.684;23.252;2023-01-05T04:25:00;94936.75;;;4.72;100.00
11339;BME280;5724;42.684;23.252;2023-01-05T04:27:26;94938.00;;;4.66;100.00
11339;BME280;5724;42.684;23.252;2023-01-05T04:29:51;94927.75;;;4.63;100.00
11339;BME280;5724;42.684;23.252;2023-01-05T04:32:17;94933.63;;;4.56;100.00
11339;BME280;5724;42.684;23.252;2023-01-05T04:34:42;94929.59;;;4.53;100.00
11339;BME280;5724;42.684;23.252;2023-01-05T04:37:08;94937.53;;;4.50;100.00
11339;BME280;5724;42.684;23.252;2023-01-05T04:39:33;94932.91;;;4.50;100.00
11339;BME280;5724;42.684;23.252;2023-01-05T04:41:59;94935.31;;;4.52;100.00
11339;BME280;5724;42.684;23.252;2023-01-05T04:44:24;94937.75;;;4.40;100.00
11339;BME280;5724;42.684;23.252;2023-01-05T04:46:50;94940.50;;;4.26;100.00
11339;BME280;5724;42.684;23.252;2023-01-05T04:49:15;94947.44;;;4.18;100.00
11339;BME280;5724;42.684;23.252;2023-01-05T04:51:41;94940.53;;;4.12;100.00
11339;BME280;5724;42.684;23.252;2023-01-05T04:54:06;94928.72;;;4.08;100.00
11339;BME280;5724;42.684;23.252;2023-01-05T04:56:32;94945.16;;;3.98;100.00
11339;BME280;5724;42.684;23.252;2023-01-05T04:58:57;94945.97;;;3.98;100.00
11339;BME280;5724;42.684;23.252;2023-01-05T05:01:22;94950.56;;;3.98;100.00
11339;BME280;5724;42.684;23.252;2023-01-05T05:03:48;94952.84;;;4.05;100.00
11339;BME280;5724;42.684;23.252;2023-01-05T05:06:13;94954.84;;;4.13;100.00
11339;BME280;5724;42.684;23.252;2023-01-05T05:08:41;94956.97;;;4.16;100.00
11339;BME280;5724;42.684;23.252;2023-01-05T05:11:06;94958.34;;;4.13;100.00
11339;BME280;5724;42.684;23.252;2023-01-05T05:13:31;94953.47;;;4.15;100.00
11339;BME280;5724;42.684;23.252;2023-01-05T05:15:57;94960.56;;;4.25;100.00
11339;BME280;5724;42.684;23.252;2023-01-05T05:18:22;94946.97;;;3.48;100.00
11339;BME280;5724;42.684;23.252;2023-01-05T05:20:50;94955.53;;;3.22;100.00
11339;BME280;5724;42.684;23.252;2023-01-05T05:23:16;94956.19;;;3.00;100.00
11339;BME280;5724;42.684;23.252;2023-01-05T05:25:41;94964.81;;;2.83;100.00
11339;BME280;5724;42.684;23.252;2023-01-05T05:28:06;94952.75;;;2.62;100.00
11339;BME280;5724;42.684;23.252;2023-01-05T05:30:32;94947.59;;;2.47;100.00
11339;BME280;5724;42.684;23.252;2023-01-05T05:32:58;94954.22;;;2.54;100.00
11339;BME280;5724;42.684;23.252;2023-01-05T05:35:23;94939.19;;;2.67;100.00
11339;BME280;5724;42.684;23.252;2023-01-05T05:37:48;94917.41;;;2.45;100.00
11339;BME280;5724;42.684;23.252;2023-01-05T05:40:14;94945.25;;;2.40;100.00
11339;BME280;5724;42.684;23.252;2023-01-05T05:42:39;94934.91;;;2.28;100.00
11339;BME280;5724;42.684;23.252;2023-01-05T05:45:05;94928.56;;;2.19;100.00
11339;BME280;5724;42.684;23.252;2023-01-05T05:47:31;94919.16;;;2.36;100.00
11339;BME280;5724;42.684;23.252;2023-01-05T05:49:56;94902.22;;;2.49;100.00
11339;BME280;5724;42.684;23.252;2023-01-05T05:52:22;94912.06;;;2.58;100.00
11339;BME280;5724;42.684;23.252;2023-01-05T05:54:47;94909.25;;;2.82;100.00
11339;BME280;5724;42.684;23.252;2023-01-05T05:57:13;94909.38;;;2.58;100.00
11339;BME280;5724;42.684;23.252;2023-01-05T05:59:38;94915.56;;;2.59;100.00
11339;BME280;5724;42.684;23.252;2023-01-05T06:02:04;94914.06;;;2.53;100.00
11339;BME280;5724;42.684;23.252;2023-01-05T06:04:29;94912.47;;;2.52;100.00
11339;BME280;5724;42.684;23.252;2023-01-05T06:06:54;94907.72;;;2.44;100.00
11339;BME280;5724;42.684;23.252;2023-01-05T06:09:20;94896.47;;;2.55;100.00
11339;BME280;5724;42.684;23.252;2023-01-05T06:11:45;94900.59;;;2.67;100.00
11339;BME280;5724;42.684;23.252;2023-01-05T06:14:11;94892.38;;;2.58;100.00
11339;BME280;5724;42.684;23.252;2023-01-05T06:16:36;94898.84;;;2.76;100.00
11339;BME280;5724;42.684;23.252;2023-01-05T06:19:02;94897.47;;;2.92;100.00
11339;BME280;5724;42.684;23.252;2023-01-05T06:21:27;94887.72;;;3.10;100.00
11339;BME280;5724;42.684;23.252;2023-01-05T06:23:53;94890.53;;;3.19;100.00
11339;BME280;5724;42.684;23.252;2023-01-05T06:26:18;94893.88;;;2.83;100.00
11339;BME280;5724;42.684;23.252;2023-01-05T06:28:44;94885.56;;;2.47;100.00
11339;BME280;5724;42.684;23.252;2023-01-05T06:31:09;94891.88;;;2.56;100.00
11339;BME280;5724;42.684;23.252;2023-01-05T06:33:35;94891.00;;;2.61;100.00
11339;BME280;5724;42.684;23.252;2023-01-05T06:36:00;94891.41;;;2.68;100.00
11339;BME280;5724;42.684;23.252;2023-01-05T06:38:26;94891.34;;;2.73;100.00
11339;BME280;5724;42.684;23.252;2023-01-05T06:40:51;94882.44;;;2.72;100.00
11339;BME280;5724;42.684;23.252;2023-01-05T06:43:19;94889.31;;;2.65;100.00
11339;BME280;5724;42.684;23.252;2023-01-05T06:45:44;94884.69;;;2.51;100.00
11339;BME280;5724;42.684;23.252;2023-01-05T06:48:09;94892.22;;;2.68;100.00
11339;BME280;5724;42.684;23.252;2023-01-05T06:50:35;94882.47;;;2.86;100.00
11339;BME280;5724;42.684;23.252;2023-01-05T06:53:01;94872.44;;;3.19;100.00
11339;BME280;5724;42.684;23.252;2023-01-05T06:55:26;94884.31;;;3.45;100.00
11339;BME280;5724;42.684;23.252;2023-01-05T06:57:52;94892.13;;;3.61;100.00
11339;BME280;5724;42.684;23.252;2023-01-05T07:00:18;94881.50;;;3.78;100.00
11339;BME280;5724;42.684;23.252;2023-01-05T07:02:43;94870.19;;;3.90;100.00
11339;BME280;5724;42.684;23.252;2023-01-05T07:05:09;94884.09;;;3.83;100.00
11339;BME280;5724;42.684;23.252;2023-01-05T07:07:34;94891.31;;;3.47;100.00
11339;BME280;5724;42.684;23.252;2023-01-05T07:10:00;94885.63;;;3.34;100.00
11339;BME280;5724;42.684;23.252;2023-01-05T07:12:26;94890.22;;;3.20;100.00
11339;BME280;5724;42.684;23.252;2023-01-05T07:14:51;94887.53;;;3.34;100.00
11339;BME280;5724;42.684;23.252;2023-01-05T07:17:17;94880.63;;;3.28;100.00
11339;BME280;5724;42.684;23.252;2023-01-05T07:19:43;94884.53;;;3.35;100.00
11339;BME280;5724;42.684;23.252;2023-01-05T07:22:08;94889.72;;;3.45;100.00
11339;BME280;5724;42.684;23.252;2023-01-05T07:24:34;94885.53;;;3.53;100.00
11339;BME280;5724;42.684;23.252;2023-01-05T07:26:59;94877.09;;;3.82;100.00
11339;BME280;5724;42.684;23.252;2023-01-05T07:29:25;94887.47;;;4.02;100.00
11339;BME280;5724;42.684;23.252;2023-01-05T07:31:51;94875.16;;;4.32;100.00
11339;BME280;5724;42.684;23.252;2023-01-05T07:34:17;94871.22;;;4.61;100.00
11339;BME280;5724;42.684;23.252;2023-01-05T07:36:43;94868.53;;;4.83;100.00
11339;BME280;5724;42.684;23.252;2023-01-05T07:39:09;94867.06;;;5.08;100.00
11339;BME280;5724;42.684;23.252;2023-01-05T07:41:34;94855.06;;;5.32;100.00
11339;BME280;5724;42.684;23.252;2023-01-05T07:43:59;94847.97;;;5.53;100.00
11339;BME280;5724;42.684;23.252;2023-01-05T07:46:25;94848.03;;;5.70;100.00
11339;BME280;5724;42.684;23.252;2023-01-05T07:48:50;94852.25;;;5.94;100.00
11339;BME280;5724;42.684;23.252;2023-01-05T07:51:16;94835.34;;;6.14;100.00
11339;BME280;5724;42.684;23.252;2023-01-05T07:53:42;94847.00;;;6.23;100.00
11339;BME280;5724;42.684;23.252;2023-01-05T07:56:09;94848.13;;;6.40;100.00
11339;BME280;5724;42.684;23.252;2023-01-05T07:58:34;94839.53;;;6.38;100.00
11339;BME280;5724;42.684;23.252;2023-01-05T08:01:04;94842.06;;;6.43;100.00
11339;BME280;5724;42.684;23.252;2023-01-05T08:03:30;94856.09;;;6.45;100.00
11339;BME280;5724;42.684;23.252;2023-01-05T08:05:56;94846.81;;;6.63;100.00
11339;BME280;5724;42.684;23.252;2023-01-05T08:08:21;94838.53;;;6.68;100.00
11339;BME280;5724;42.684;23.252;2023-01-05T08:10:46;94845.88;;;6.76;100.00
11339;BME280;5724;42.684;23.252;2023-01-05T08:13:12;94845.53;;;6.86;100.00
11339;BME280;5724;42.684;23.252;2023-01-05T08:15:57;94844.31;;;7.13;99.80
11339;BME280;5724;42.684;23.252;2023-01-05T08:18:25;94846.09;;;7.18;98.12
11339;BME280;5724;42.684;23.252;2023-01-05T08:21:00;94849.31;;;7.50;98.66
11339;BME280;5724;42.684;23.252;2023-01-05T08:23:29;94849.91;;;7.64;98.00
11339;BME280;5724;42.684;23.252;2023-01-05T08:25:55;94846.94;;;7.78;96.25
11339;BME280;5724;42.684;23.252;2023-01-05T08:28:23;94853.59;;;7.89;95.19
11339;BME280;5724;42.684;23.252;2023-01-05T08:30:48;94850.38;;;7.95;94.74
11339;BME280;5724;42.684;23.252;2023-01-05T08:33:14;94854.69;;;7.96;93.93
11339;BME280;5724;42.684;23.252;2023-01-05T08:35:41;94846.25;;;8.10;92.66
11339;BME280;5724;42.684;23.252;2023-01-05T08:38:07;94844.34;;;8.11;91.75
11339;BME280;5724;42.684;23.252;2023-01-05T08:40:33;94838.91;;;8.11;90.48
11339;BME280;5724;42.684;23.252;2023-01-05T08:42:58;94847.78;;;8.20;90.06
11339;BME280;5724;42.684;23.252;2023-01-05T08:45:24;94841.88;;;8.18;89.70
11339;BME280;5724;42.684;23.252;2023-01-05T08:47:49;94848.69;;;8.32;88.97
11339;BME280;5724;42.684;23.252;2023-01-05T08:50:16;94844.66;;;8.59;87.74
11339;BME280;5724;42.684;23.252;2023-01-05T08:52:41;94827.81;;;8.78;87.10
11339;BME280;5724;42.684;23.252;2023-01-05T08:55:07;94836.59;;;8.96;86.26
11339;BME280;5724;42.684;23.252;2023-01-05T08:57:33;94832.69;;;8.85;85.33
11339;BME280;5724;42.684;23.252;2023-01-05T08:59:58;94823.31;;;8.95;85.54
11339;BME280;5724;42.684;23.252;2023-01-05T09:02:24;94836.88;;;9.15;84.07
11339;BME280;5724;42.684;23.252;2023-01-05T09:04:50;94816.56;;;9.25;82.92
11339;BME280;5724;42.684;23.252;2023-01-05T09:07:15;94796.91;;;9.32;82.98
11339;BME280;5724;42.684;23.252;2023-01-05T09:09:41;94793.28;;;9.40;81.85
11339;BME280;5724;42.684;23.252;2023-01-05T09:12:06;94793.09;;;9.57;80.85
11339;BME280;5724;42.684;23.252;2023-01-05T09:14:31;94785.78;;;9.61;79.55
11339;BME280;5724;42.684;23.252;2023-01-05T09:16:57;94782.38;;;9.64;78.90
11339;BME280;5724;42.684;23.252;2023-01-05T09:19:23;94768.06;;;9.55;79.73
11339;BME280;5724;42.684;23.252;2023-01-05T09:21:48;94758.97;;;9.63;80.72
11339;BME280;5724;42.684;23.252;2023-01-05T09:24:14;94742.13;;;9.86;79.60
11339;BME280;5724;42.684;23.252;2023-01-05T09:26:40;94740.19;;;9.74;79.13
11339;BME280;5724;42.684;23.252;2023-01-05T09:29:06;94723.69;;;9.83;79.66
11339;BME280;5724;42.684;23.252;2023-01-05T09:31:31;94719.31;;;9.66;78.63
11339;BME280;5724;42.684;23.252;2023-01-05T09:33:57;94718.84;;;9.76;78.15
11339;BME280;5724;42.684;23.252;2023-01-05T09:36:23;94722.97;;;9.33;79.30
11339;BME280;5724;42.684;23.252;2023-01-05T09:38:51;94720.59;;;9.07;79.94
11339;BME280;5724;42.684;23.252;2023-01-05T09:41:33;94722.22;;;8.75;81.03
11339;BME280;5724;42.684;23.252;2023-01-05T09:44:06;94709.34;;;9.21;79.76
11339;BME280;5724;42.684;23.252;2023-01-05T09:46:39;94693.88;;;9.50;80.29
11339;BME280;5724;42.684;23.252;2023-01-05T09:49:10;94693.31;;;9.84;79.01
11339;BME280;5724;42.684;23.252;2023-01-05T09:51:37;94696.53;;;9.86;78.08
11339;BME280;5724;42.684;23.252;2023-01-05T09:54:02;94691.16;;;9.90;77.51
11339;BME280;5724;42.684;23.252;2023-01-05T09:56:38;94679.41;;;9.61;78.44
11339;BME280;5724;42.684;23.252;2023-01-05T09:59:30;94676.91;;;9.68;78.93
11339;BME280;5724;42.684;23.252;2023-01-05T10:01:59;94673.38;;;9.68;78.06
11339;BME280;5724;42.684;23.252;2023-01-05T10:04:27;94669.63;;;9.60;78.48
11339;BME280;5724;42.684;23.252;2023-01-05T10:09:50;94673.53;;;9.87;76.50
11339;BME280;5724;42.684;23.252;2023-01-05T10:12:21;94669.69;;;9.88;76.78
11339;BME280;5724;42.684;23.252;2023-01-05T10:15:19;94668.78;;;10.12;75.82
11339;BME280;5724;42.684;23.252;2023-01-05T10:17:46;94669.34;;;10.18;74.60
11339;BME280;5724;42.684;23.252;2023-01-05T10:23:09;94669.06;;;10.35;74.53
11339;BME280;5724;42.684;23.252;2023-01-05T10:26:03;94662.84;;;10.22;74.93
11339;BME280;5724;42.684;23.252;2023-01-05T10:28:41;94656.88;;;10.32;74.72
11339;BME280;5724;42.684;23.252;2023-01-05T10:31:54;94649.94;;;10.51;73.94
11339;BME280;5724;42.684;23.252;2023-01-05T10:45:09;94621.34;;;11.43;70.29
11339;BME280;5724;42.684;23.252;2023-01-05T10:47:36;94617.97;;;11.50;69.02
11339;BME280;5724;42.684;23.252;2023-01-05T10:50:37;94614.53;;;11.72;68.44
11339;BME280;5724;42.684;23.252;2023-01-05T10:53:14;94610.25;;;11.55;67.42
11339;BME280;5724;42.684;23.252;2023-01-05T10:56:14;94604.91;;;11.78;66.97
11339;BME280;5724;42.684;23.252;2023-01-05T10:58:42;94602.03;;;12.10;66.16
11339;BME280;5724;42.684;23.252;2023-01-05T11:01:28;94607.78;;;12.04;65.51
11339;BME280;5724;42.684;23.252;2023-01-05T11:04:01;94583.72;;;12.14;65.46
11339;BME280;5724;42.684;23.252;2023-01-05T11:06:32;94600.72;;;12.03;64.67
11339;BME280;5724;42.684;23.252;2023-01-05T11:09:21;94592.56;;;12.26;65.46
11339;BME280;5724;42.684;23.252;2023-01-05T11:11:58;94582.09;;;12.32;64.39
11339;BME280;5724;42.684;23.252;2023-01-05T11:14:26;94581.88;;;12.41;63.63
11339;BME280;5724;42.684;23.252;2023-01-05T11:17:02;94585.75;;;12.40;63.87
11339;BME280;5724;42.684;23.252;2023-01-05T11:19:34;94577.31;;;12.48;63.20
11339;BME280;5724;42.684;23.252;2023-01-05T11:22:01;94572.28;;;12.31;63.45
11339;BME280;5724;42.684;23.252;2023-01-05T11:24:28;94580.41;;;12.47;63.53
11339;BME280;5724;42.684;23.252;2023-01-05T11:27:43;94572.19;;;12.47;62.58
11339;BME280;5724;42.684;23.252;2023-01-05T11:29:44;94575.25;;;12.22;59.58
11339;BME280;5724;42.684;23.252;2023-01-05T11:32:11;94564.53;;;12.14;60.28
11339;BME280;5724;42.684;23.252;2023-01-05T11:34:41;94558.03;;;12.22;62.51
11339;BME280;5724;42.684;23.252;2023-01-05T11:42:13;94556.25;;;12.10;60.17
11339;BME280;5724;42.684;23.252;2023-01-05T11:44:46;94560.16;;;12.09;58.83
11339;BME280;5724;42.684;23.252;2023-01-05T11:47:38;94558.38;;;11.97;60.03
11339;BME280;5724;42.684;23.252;2023-01-05T11:52:48;94546.59;;;12.39;56.91
11339;BME280;5724;42.684;23.252;2023-01-05T11:55:38;94553.91;;;12.54;56.21
11339;BME280;5724;42.684;23.252;2023-01-05T11:58:14;94544.88;;;12.77;58.48
11339;BME280;5724;42.684;23.252;2023-01-05T12:08:54;94542.44;;;12.03;56.51
11339;BME280;5724;42.684;23.252;2023-01-05T12:11:22;94554.75;;;11.93;57.62
11339;BME280;5724;42.684;23.252;2023-01-05T12:16:53;94529.84;;;11.79;58.10
11339;BME280;5724;42.684;23.252;2023-01-05T12:29:53;94499.53;;;11.49;59.00
11339;BME280;5724;42.684;23.252;2023-01-05T12:32:29;94489.66;;;11.44;59.19
11339;BME280;5724;42.684;23.252;2023-01-05T12:43:45;94476.69;;;11.03;59.38
11339;BME280;5724;42.684;23.252;2023-01-05T12:48:52;94483.56;;;10.97;60.76
11339;BME280;5724;42.684;23.252;2023-01-05T12:51:54;94489.94;;;11.01;61.09
11339;BME280;5724;42.684;23.252;2023-01-05T12:54:35;94492.66;;;11.01;61.06
11339;BME280;5724;42.684;23.252;2023-01-05T12:57:36;94487.91;;;11.17;60.94
11339;BME280;5724;42.684;23.252;2023-01-05T13:00:13;94489.22;;;11.04;60.61
11339;BME280;5724;42.684;23.252;2023-01-05T13:02:42;94500.56;;;11.06;60.25
11339;BME280;5724;42.684;23.252;2023-01-05T13:05:31;94495.41;;;11.20;60.14
11339;BME280;5724;42.684;23.252;2023-01-05T13:08:05;94500.31;;;11.30;59.89
11339;BME280;5724;42.684;23.252;2023-01-05T13:10:58;94498.00;;;11.32;59.70
11339;BME280;5724;42.684;23.252;2023-01-05T13:13:41;94495.13;;;11.25;59.59
11339;BME280;5724;42.684;23.252;2023-01-05T13:16:19;94501.47;;;11.10;60.35
11339;BME280;5724;42.684;23.252;2023-01-05T13:18:49;94497.00;;;11.21;60.00
11339;BME280;5724;42.684;23.252;2023-01-05T13:21:17;94497.91;;;11.09;60.10
11339;BME280;5724;42.684;23.252;2023-01-05T13:23:50;94508.94;;;11.32;59.70
11339;BME280;5724;42.684;23.252;2023-01-05T13:26:19;94504.34;;;11.36;59.44
11339;BME280;5724;42.684;23.252;2023-01-05T13:28:52;94496.28;;;11.24;59.10
11339;BME280;5724;42.684;23.252;2023-01-05T13:55:20;94440.19;;;11.76;57.09
11339;BME280;5724;42.684;23.252;2023-01-05T13:57:47;94420.53;;;11.47;57.28
11339;BME280;5724;42.684;23.252;2023-01-05T14:00:30;94439.00;;;11.73;57.47
11339;BME280;5724;42.684;23.252;2023-01-05T14:03:19;94435.28;;;11.62;56.88
11339;BME280;5724;42.684;23.252;2023-01-05T14:05:58;94442.63;;;11.58;57.44
11339;BME280;5724;42.684;23.252;2023-01-05T14:08:29;94456.81;;;11.44;57.51
11339;BME280;5724;42.684;23.252;2023-01-05T14:11:15;94450.56;;;11.44;57.47
11339;BME280;5724;42.684;23.252;2023-01-05T14:13:58;94446.97;;;11.21;57.08
11339;BME280;5724;42.684;23.252;2023-01-05T14:32:27;94461.78;;;10.81;59.10
11339;BME280;5724;42.684;23.252;2023-01-05T14:37:26;94452.63;;;10.73;59.00
11339;BME280;5724;42.684;23.252;2023-01-05T14:39:54;94441.94;;;10.68;58.70
11339;BME280;5724;42.684;23.252;2023-01-05T14:42:29;94462.59;;;10.66;58.96
11339;BME280;5724;42.684;23.252;2023-01-05T14:45:07;94458.78;;;10.70;59.07
11339;BME280;5724;42.684;23.252;2023-01-05T14:47:39;94458.78;;;10.70;59.62
11339;BME280;5724;42.684;23.252;2023-01-05T14:55:30;94466.50;;;10.49;59.69
11339;BME280;5724;42.684;23.252;2023-01-05T14:57:59;94464.31;;;10.39;60.38
11339;BME280;5724;42.684;23.252;2023-01-05T15:03:38;94466.25;;;10.07;62.31
11339;BME280;5724;42.684;23.252;2023-01-05T15:06:15;94470.28;;;9.97;62.49
11339;BME280;5724;42.684;23.252;2023-01-05T15:12:37;94471.91;;;9.70;65.63
11339;BME280;5724;42.684;23.252;2023-01-05T15:26:47;94478.75;;;9.64;67.95
11339;BME280;5724;42.684;23.252;2023-01-05T15:31:47;94480.25;;;9.05;70.75
11339;BME280;5724;42.684;23.252;2023-01-05T15:34:28;94479.38;;;9.01;70.99
11339;BME280;5724;42.684;23.252;2023-01-05T15:37:24;94487.16;;;8.75;71.32
11339;BME280;5724;42.684;23.252;2023-01-05T15:39:55;94485.91;;;8.72;70.66
11339;BME280;5724;42.684;23.252;2023-01-05T15:42:24;94477.41;;;8.62;71.38
11339;BME280;5724;42.684;23.252;2023-01-05T15:44:53;94486.72;;;8.60;71.54
11339;BME280;5724;42.684;23.252;2023-01-05T15:47:22;94469.47;;;8.56;71.99
11339;BME280;5724;42.684;23.252;2023-01-05T15:49:49;94476.41;;;8.54;72.28